Accueil
METAR-TAF:

METAR-TAF

Aéroports :

Clinton, Arkansas, États-Unis

latitude: 35-35-52N, longitude: 092-27-06W, altitude: 157 m

Observation

Le bulletin a été fait il y a 13 minutes, à 01:35 UTC
Vent 5 kt de direction variable avec des rafales jusqu'à 14 kt
Température -1°C
Humidité 74%
Pression 1030 hPa
Visibilité: 14.5 km
Nuages fragmentés à une hauteur de 2500 ft
Nuages fragmentés à une hauteur de 6500 ft
Ciel couvert à une hauteur de 8000 ft

METAR: KCCA 120135Z AUTO VRB05G14KT 9SM BKN025 BKN065 OVC080 M01/M05 A3041 RMK AO2

Heure: 19:48 (01:48 UTC)


TAF: absent

Observations et prévisions météorologiques de plus de 4000 aéroports (messages METAR et TAF).

Les stations disponibles sont représentées par des disques jaunes et rouges sur la carte.

Passer la souris dessus pour voir le nom de la station.

Cliquer dessus pour voir les observations et prévisions météorologiques.

Pour changer de carte: cliquez sur les boutons verts avec une croix noire pour zoomer, sur le bouton vert avec un tiret pour effectuer un zoom arrière, ou sur les flèches vertes pour les cartes adjacentes.


METAR-TAF: